Time;durP1;ratioP1;P1;durP2;ratioP2;P2;SDS_P1;SDS_P2;PMS_P1;PMS_P2;Temp;Humidity;BMP_temperature;BMP_pressure;BME280_temperature;BME280_humidity;BME280_pressure;Samples;Min_cycle;Max_cycle;Signal;HPM_P1;HPM_P2
2021/12/09 00:00:15;;;;;;;29.95;21.55;;;2.50;99.90;;;;;;5092913;28;20103;-63
2021/12/09 00:02:41;;;;;;;29.83;21.75;;;2.50;99.90;;;;;;5093049;28;20027;-63
2021/12/09 00:05:10;;;;;;;30.35;20.75;;;2.50;99.90;;;;;;5092245;28;20368;-63
2021/12/09 00:07:36;;;;;;;30.67;20.90;;;2.50;99.90;;;;;;5093053;28;20043;-63
2021/12/09 00:10:06;;;;;;;29.90;21.25;;;2.50;99.90;;;;;;5091998;28;20401;-63
2021/12/09 00:12:32;;;;;;;31.40;21.07;;;2.50;99.90;;;;;;5092831;28;20099;-63
2021/12/09 00:14:58;;;;;;;36.08;23.85;;;2.50;99.90;;;;;;5092810;28;20111;-62
2021/12/09 00:17:25;;;;;;;32.10;22.42;;;2.50;99.90;;;;;;5092010;28;20035;-63
2021/12/09 00:19:51;;;;;;;32.90;22.42;;;2.50;99.90;;;;;;5092518;28;20131;-63
2021/12/09 00:22:16;;;;;;;33.20;22.48;;;2.50;99.90;;;;;;5091861;28;20110;-63
2021/12/09 00:24:42;;;;;;;32.70;22.85;;;2.50;99.90;;;;;;5092597;28;20020;-63
2021/12/09 00:27:08;;;;;;;35.10;23.40;;;2.50;99.90;;;;;;5092276;28;20031;-63
2021/12/09 00:29:34;;;;;;;32.78;22.55;;;2.50;99.90;;;;;;5092226;28;20425;-62
2021/12/09 00:34:47;;;;;;;33.88;22.40;;;2.50;99.90;;;;;;5092243;28;20046;-62
2021/12/09 00:39:44;;;;;;;34.95;22.25;;;2.50;99.90;;;;;;5092339;28;20055;-63
2021/12/09 00:42:10;;;;;;;36.97;24.08;;;2.60;99.90;;;;;;5092005;28;20410;-62
2021/12/09 00:44:37;;;;;;;32.58;21.80;;;2.60;99.90;;;;;;5092678;28;20036;-62
2021/12/09 00:47:04;;;;;;;32.63;22.58;;;2.60;99.90;;;;;;5092155;28;20040;-63
2021/12/09 00:49:31;;;;;;;34.53;23.02;;;2.60;99.90;;;;;;5079644;28;20242;-63
2021/12/09 00:51:58;;;;;;;33.13;23.48;;;2.50;99.90;;;;;;5071941;28;20116;-63
2021/12/09 00:54:24;;;;;;;35.78;23.73;;;2.60;99.90;;;;;;5071476;28;20099;-63
2021/12/09 00:56:50;;;;;;;36.85;24.73;;;2.60;99.90;;;;;;5070904;28;20050;-63
2021/12/09 00:59:16;;;;;;;36.45;23.48;;;2.60;99.90;;;;;;5071037;28;20066;-63
2021/12/09 01:01:42;;;;;;;35.25;24.92;;;2.60;99.90;;;;;;5074448;28;20059;-62
2021/12/09 01:04:08;;;;;;;35.95;25.40;;;2.60;99.90;;;;;;5071968;28;20031;-62
2021/12/09 01:06:33;;;;;;;38.45;25.40;;;2.60;99.90;;;;;;5071238;28;20016;-63
2021/12/09 01:08:59;;;;;;;39.88;25.65;;;2.60;99.90;;;;;;5071820;28;20069;-63
2021/12/09 01:11:25;;;;;;;45.53;27.88;;;2.60;99.90;;;;;;5071201;28;20078;-62
2021/12/09 01:13:50;;;;;;;42.67;27.60;;;2.50;99.90;;;;;;5071782;28;20032;-62
2021/12/09 01:16:16;;;;;;;41.83;28.30;;;2.50;99.90;;;;;;5071100;28;20032;-62
2021/12/09 01:18:42;;;;;;;46.22;29.58;;;2.50;99.90;;;;;;5071724;28;20021;-63
2021/12/09 01:21:08;;;;;;;49.78;30.80;;;2.50;99.90;;;;;;5072899;28;20309;-62
2021/12/09 01:23:34;;;;;;;52.45;32.15;;;2.50;99.90;;;;;;5074694;28;20024;-62
2021/12/09 01:26:03;;;;;;;51.22;33.13;;;2.40;99.90;;;;;;5075542;28;20020;-62
2021/12/09 01:28:33;;;;;;;52.25;33.67;;;2.30;99.90;;;;;;5074909;28;20017;-62
2021/12/09 01:31:04;;;;;;;56.35;35.38;;;2.30;99.90;;;;;;5075492;28;20027;-62
2021/12/09 01:33:31;;;;;;;58.47;35.22;;;2.20;99.90;;;;;;5074919;28;20024;-62
2021/12/09 01:35:57;;;;;;;63.20;37.50;;;2.10;99.90;;;;;;5075387;28;20067;-63
2021/12/09 01:38:26;;;;;;;61.17;37.38;;;2.10;99.90;;;;;;5074670;28;20069;-63
2021/12/09 01:40:52;;;;;;;60.80;36.28;;;2.10;99.90;;;;;;5075259;28;20025;-63
2021/12/09 01:43:18;;;;;;;62.97;37.45;;;2.00;99.90;;;;;;5074556;28;20503;-62
2021/12/09 01:45:43;;;;;;;63.25;38.67;;;2.00;99.90;;;;;;5075140;28;20043;-61
2021/12/09 01:48:09;;;;;;;63.55;38.72;;;2.00;99.90;;;;;;5074881;28;20028;-62
2021/12/09 01:50:35;;;;;;;63.83;39.15;;;2.00;99.90;;;;;;5074752;28;20055;-62
2021/12/09 01:53:03;;;;;;;66.28;39.95;;;2.00;99.90;;;;;;5075045;28;20032;-62
2021/12/09 01:55:30;;;;;;;64.30;39.72;;;2.00;99.90;;;;;;5074399;28;20035;-61
2021/12/09 01:57:56;;;;;;;73.68;44.17;;;1.90;99.90;;;;;;5075007;28;20395;-62
2021/12/09 02:00:26;;;;;;;75.22;42.58;;;1.90;99.90;;;;;;5074300;28;20038;-62
2021/12/09 02:02:53;;;;;;;73.55;43.30;;;1.90;99.90;;;;;;5075174;28;20028;-62
2021/12/09 02:05:19;;;;;;;70.53;43.85;;;1.80;99.90;;;;;;5074289;28;20048;-63
2021/12/09 02:07:46;;;;;;;73.70;45.13;;;1.80;99.90;;;;;;5074819;28;20028;-62
2021/12/09 02:10:15;;;;;;;77.32;46.10;;;1.80;99.90;;;;;;5074522;28;20020;-63
2021/12/09 02:12:41;;;;;;;73.22;45.72;;;1.80;99.90;;;;;;5074408;28;20526;-62
2021/12/09 02:15:08;;;;;;;79.03;46.88;;;1.80;99.90;;;;;;5074781;28;20024;-62
2021/12/09 02:17:35;;;;;;;77.75;47.60;;;1.70;99.90;;;;;;5074110;28;20044;-62
2021/12/09 02:20:04;;;;;;;80.25;47.50;;;1.70;99.90;;;;;;5074545;28;20027;-62
2021/12/09 02:22:31;;;;;;;80.28;48.22;;;1.70;99.90;;;;;;5073993;28;20116;-62
2021/12/09 02:24:57;;;;;;;83.97;48.45;;;1.70;99.90;;;;;;5074441;28;20028;-62
2021/12/09 02:27:24;;;;;;;81.47;48.67;;;1.70;99.90;;;;;;5073882;28;20020;-62
2021/12/09 02:29:52;;;;;;;89.88;50.70;;;1.70;99.90;;;;;;5074303;28;20031;-62
2021/12/09 02:32:18;;;;;;;87.68;50.47;;;1.60;99.90;;;;;;5073849;28;20021;-62
2021/12/09 02:34:44;;;;;;;80.60;48.42;;;1.60;99.90;;;;;;5074048;28;20024;-63
2021/12/09 02:37:13;;;;;;;89.47;51.53;;;1.60;99.90;;;;;;5073207;28;20128;-63
2021/12/09 02:39:39;;;;;;;89.93;52.80;;;1.60;99.90;;;;;;5073566;28;20104;-63
2021/12/09 02:42:05;;;;;;;95.78;53.10;;;1.60;99.90;;;;;;5072882;28;20032;-63
2021/12/09 02:44:30;;;;;;;95.03;53.38;;;1.50;99.90;;;;;;5073668;28;20027;-63
2021/12/09 02:46:56;;;;;;;95.68;54.97;;;1.50;99.90;;;;;;5074194;28;20461;-63
2021/12/09 02:49:29;;;;;;;101.57;54.65;;;1.50;99.90;;;;;;5075720;28;20066;-64
2021/12/09 02:51:56;;;;;;;99.60;55.05;;;1.50;99.90;;;;;;5074015;28;20029;-63
2021/12/09 02:54:24;;;;;;;95.90;55.25;;;1.50;99.90;;;;;;5073436;28;20016;-64
2021/12/09 02:56:52;;;;;;;103.60;56.38;;;1.50;99.90;;;;;;5073873;28;20103;-62
2021/12/09 02:59:19;;;;;;;106.55;56.47;;;1.50;99.90;;;;;;5073938;28;20016;-62
2021/12/09 03:02:10;;;;;;;98.95;57.05;;;1.50;99.90;;;;;;5073206;28;20028;-62
2021/12/09 03:04:53;;;;;;;105.30;55.95;;;1.40;99.90;;;;;;5072776;28;20039;-62
2021/12/09 03:07:35;;;;;;;105.05;57.08;;;1.50;99.90;;;;;;5073526;28;20024;-63
2021/12/09 03:10:17;;;;;;;106.80;58.40;;;1.40;99.90;;;;;;5076304;28;20056;-63
2021/12/09 03:12:43;;;;;;;111.80;61.28;;;1.40;99.90;;;;;;5072955;28;20017;-62
2021/12/09 03:15:10;;;;;;;111.78;58.53;;;1.40;99.90;;;;;;5073535;28;20028;-63
2021/12/09 03:17:37;;;;;;;113.03;57.10;;;1.40;99.90;;;;;;5072657;28;20144;-62
2021/12/09 03:20:09;;;;;;;113.88;58.55;;;1.40;99.90;;;;;;5073276;28;20342;-63
2021/12/09 03:22:35;;;;;;;113.72;56.90;;;1.40;99.90;;;;;;5072746;28;20365;-62
2021/12/09 03:25:01;;;;;;;106.55;57.42;;;1.40;99.90;;;;;;5073181;28;20025;-62
2021/12/09 03:27:27;;;;;;;117.10;59.28;;;1.40;99.90;;;;;;5072372;28;20021;-62
2021/12/09 03:29:52;;;;;;;113.05;57.80;;;1.40;99.90;;;;;;5073383;28;20024;-62
2021/12/09 03:32:21;;;;;;;112.57;59.88;;;1.40;99.90;;;;;;5072849;28;20025;-62
2021/12/09 03:34:47;;;;;;;117.50;60.30;;;1.40;99.90;;;;;;5072458;28;20016;-62
2021/12/09 03:37:16;;;;;;;114.55;61.40;;;1.40;99.90;;;;;;5073171;28;20013;-63
2021/12/09 03:39:43;;;;;;;119.38;61.05;;;1.30;99.90;;;;;;5072353;28;20368;-62
2021/12/09 03:42:12;;;;;;;124.88;60.67;;;1.30;99.90;;;;;;5071599;28;20407;-62
2021/12/09 03:44:39;;;;;;;124.78;62.38;;;1.30;99.90;;;;;;5071570;28;20027;-62
2021/12/09 03:47:08;;;;;;;123.07;61.72;;;1.20;99.90;;;;;;5072756;28;20369;-62
2021/12/09 03:49:34;;;;;;;116.82;61.30;;;1.30;99.90;;;;;;5073512;28;20066;-62
2021/12/09 03:52:00;;;;;;;118.60;61.47;;;1.30;99.90;;;;;;5084236;28;20028;-63
2021/12/09 03:54:26;;;;;;;127.40;61.30;;;1.30;99.90;;;;;;5080744;28;20078;-62
2021/12/09 03:56:52;;;;;;;119.78;60.15;;;1.30;99.90;;;;;;5080779;28;20028;-63
2021/12/09 03:59:18;;;;;;;128.45;61.83;;;1.30;99.90;;;;;;5075233;28;20016;-62
2021/12/09 04:01:45;;;;;;;119.05;60.55;;;1.30;99.90;;;;;;5071530;28;20078;-63
2021/12/09 04:04:12;;;;;;;132.00;64.38;;;1.30;99.90;;;;;;5076843;28;20024;-63
2021/12/09 04:06:38;;;;;;;125.88;60.78;;;1.30;99.90;;;;;;5082701;28;20100;-63
2021/12/09 04:09:06;;;;;;;129.38;63.55;;;1.30;99.90;;;;;;5078912;28;20051;-64
2021/12/09 04:11:32;;;;;;;126.00;62.42;;;1.20;99.90;;;;;;5088107;28;20034;-62
2021/12/09 04:13:58;;;;;;;132.25;64.38;;;1.20;99.90;;;;;;5076953;28;20440;-62
2021/12/09 04:16:24;;;;;;;133.77;65.20;;;1.20;99.90;;;;;;5084418;28;20027;-62
2021/12/09 04:18:50;;;;;;;130.77;64.60;;;1.20;99.90;;;;;;5083389;28;20039;-63
2021/12/09 04:21:16;;;;;;;130.68;65.60;;;1.20;99.90;;;;;;5092530;28;20024;-64
2021/12/09 04:23:42;;;;;;;134.10;64.32;;;1.20;99.90;;;;;;5086564;28;20392;-63
2021/12/09 04:26:09;;;;;;;130.82;64.28;;;1.10;99.90;;;;;;5087049;28;20020;-63
2021/12/09 04:28:35;;;;;;;132.80;64.05;;;1.20;99.90;;;;;;5080715;28;20020;-63
2021/12/09 04:31:01;;;;;;;126.43;64.43;;;1.20;99.90;;;;;;5085194;28;20036;-63
2021/12/09 04:33:29;;;;;;;136.15;65.30;;;1.20;99.90;;;;;;5088575;28;20346;-64
2021/12/09 04:35:56;;;;;;;130.02;63.83;;;1.20;99.90;;;;;;5092293;28;20081;-63
2021/12/09 04:38:22;;;;;;;132.18;66.20;;;1.20;99.90;;;;;;5079165;28;20031;-63
2021/12/09 04:40:47;;;;;;;133.82;66.10;;;1.20;99.90;;;;;;5072086;28;20024;-64
2021/12/09 04:43:13;;;;;;;130.15;62.63;;;1.20;99.90;;;;;;5074474;28;20110;-64
2021/12/09 04:45:40;;;;;;;129.93;64.60;;;1.20;99.90;;;;;;5077366;28;20028;-64
2021/12/09 04:48:07;;;;;;;139.55;64.63;;;1.20;99.90;;;;;;5072508;28;20419;-63
2021/12/09 04:50:35;;;;;;;133.73;64.93;;;1.20;99.90;;;;;;5078726;28;20115;-64
2021/12/09 04:53:01;;;;;;;139.50;65.65;;;1.20;99.90;;;;;;5082311;28;20020;-63
2021/12/09 04:55:28;;;;;;;135.15;63.55;;;1.20;99.90;;;;;;5092384;28;20020;-63
2021/12/09 04:57:53;;;;;;;135.55;65.50;;;1.20;99.90;;;;;;5086362;28;20029;-63
2021/12/09 05:00:23;;;;;;;134.27;65.35;;;1.20;99.90;;;;;;5081125;28;20031;-63
2021/12/09 05:03:07;;;;;;;136.77;65.20;;;1.20;99.90;;;;;;5092334;28;20683;-64
2021/12/09 05:05:39;;;;;;;137.02;66.32;;;1.20;99.90;;;;;;5083251;28;20044;-63
2021/12/09 05:08:07;;;;;;;136.80;63.20;;;1.20;99.90;;;;;;5094778;28;20086;-63
2021/12/09 05:10:51;;;;;;;136.45;65.05;;;1.20;99.90;;;;;;5095421;28;20020;-63
2021/12/09 05:13:18;;;;;;;133.10;64.35;;;1.20;99.90;;;;;;5096076;28;20012;-63
2021/12/09 05:15:45;;;;;;;131.77;63.53;;;1.20;99.90;;;;;;5095094;28;20039;-64
2021/12/09 05:18:11;;;;;;;138.88;66.35;;;1.20;99.90;;;;;;5087653;28;20070;-64
2021/12/09 05:20:37;;;;;;;138.30;65.10;;;1.20;99.90;;;;;;5074624;28;20056;-63
2021/12/09 05:23:03;;;;;;;135.88;68.30;;;1.30;99.90;;;;;;5082196;28;20409;-64
2021/12/09 05:25:30;;;;;;;115.88;58.60;;;1.30;99.90;;;;;;5087365;28;20020;-63
2021/12/09 05:27:55;;;;;;;116.82;58.47;;;1.30;99.90;;;;;;5086115;28;20023;-63
2021/12/09 05:30:25;;;;;;;116.63;57.33;;;1.30;99.90;;;;;;5087369;28;20380;-63
2021/12/09 05:32:52;;;;;;;110.78;56.53;;;1.30;99.90;;;;;;5086089;28;20389;-64
2021/12/09 05:35:18;;;;;;;117.85;58.92;;;1.30;99.90;;;;;;5091278;28;20055;-72
2021/12/09 05:37:45;;;;;;;111.53;56.85;;;1.20;99.90;;;;;;5079682;28;20494;-64
2021/12/09 05:40:12;;;;;;;117.45;59.17;;;1.30;99.90;;;;;;5075210;28;20034;-64
2021/12/09 05:42:38;;;;;;;114.25;56.50;;;1.30;99.90;;;;;;5074100;28;20033;-64
2021/12/09 05:45:05;;;;;;;112.88;57.67;;;1.30;99.90;;;;;;5075177;28;20027;-63
2021/12/09 05:47:31;;;;;;;105.20;55.20;;;1.30;99.90;;;;;;5079652;28;20380;-63
2021/12/09 05:49:57;;;;;;;113.70;55.95;;;1.30;99.90;;;;;;5083096;28;20013;-63
2021/12/09 05:52:23;;;;;;;103.93;54.00;;;1.30;99.90;;;;;;5084677;28;20364;-63
2021/12/09 05:54:49;;;;;;;107.68;54.83;;;1.30;99.90;;;;;;5082058;28;20020;-63
2021/12/09 05:57:15;;;;;;;101.35;53.42;;;1.30;99.90;;;;;;5082846;28;20039;-63
2021/12/09 05:59:41;;;;;;;101.88;54.20;;;1.30;99.90;;;;;;5090956;28;20020;-64
2021/12/09 06:02:13;;;;;;;100.22;52.95;;;1.30;99.90;;;;;;5094624;28;20040;-64
2021/12/09 06:04:39;;;;;;;92.53;51.92;;;1.30;99.90;;;;;;5094183;28;20028;-64
2021/12/09 06:07:05;;;;;;;98.70;49.85;;;1.30;99.90;;;;;;5093752;28;20027;-64
2021/12/09 06:09:32;;;;;;;96.45;50.85;;;1.40;99.90;;;;;;5094662;28;20020;-63
2021/12/09 06:11:57;;;;;;;86.05;48.33;;;1.30;99.90;;;;;;5093722;28;20468;-64
2021/12/09 06:14:23;;;;;;;88.85;48.65;;;1.30;99.90;;;;;;5094489;28;20077;-64
2021/12/09 06:16:49;;;;;;;87.35;47.47;;;1.30;99.90;;;;;;5094420;28;20418;-64
2021/12/09 06:19:15;;;;;;;87.05;49.03;;;1.20;99.90;;;;;;5094400;28;20274;-63
2021/12/09 06:21:41;;;;;;;84.22;46.83;;;1.20;99.90;;;;;;5093517;28;20126;-63
2021/12/09 06:24:06;;;;;;;85.75;47.35;;;1.20;99.90;;;;;;5094267;28;20363;-63
2021/12/09 06:26:32;;;;;;;88.97;48.95;;;1.20;99.90;;;;;;5094141;28;20538;-63
2021/12/09 06:28:59;;;;;;;85.20;46.78;;;1.20;99.90;;;;;;5093664;28;20077;-63
2021/12/09 06:31:26;;;;;;;84.75;47.63;;;1.20;99.90;;;;;;5094236;28;20020;-63
2021/12/09 06:33:52;;;;;;;84.72;47.20;;;1.20;99.90;;;;;;5093477;28;20028;-63
2021/12/09 06:36:19;;;;;;;92.10;48.80;;;1.20;99.90;;;;;;5092905;28;20123;-63
2021/12/09 06:38:46;;;;;;;89.63;48.33;;;1.20;99.90;;;;;;5093634;28;20436;-63
2021/12/09 06:41:12;;;;;;;83.35;47.03;;;1.20;99.90;;;;;;5093686;28;20032;-63
2021/12/09 06:43:40;;;;;;;86.95;46.75;;;1.20;99.90;;;;;;5093247;28;20097;-63
2021/12/09 06:46:07;;;;;;;80.63;45.40;;;1.20;99.90;;;;;;5092610;28;20051;-63
2021/12/09 06:48:34;;;;;;;86.28;47.67;;;1.20;99.90;;;;;;5093950;28;20038;-63
2021/12/09 06:51:05;;;;;;;86.43;47.50;;;1.20;99.90;;;;;;5092930;28;20023;-63
2021/12/09 06:53:32;;;;;;;92.70;47.22;;;1.20;99.90;;;;;;5093736;28;20146;-63
2021/12/09 06:55:58;;;;;;;92.05;49.55;;;1.20;99.90;;;;;;5093263;28;20055;-63
2021/12/09 06:58:24;;;;;;;88.18;48.80;;;1.20;99.90;;;;;;5090827;28;20043;-64
2021/12/09 07:00:51;;;;;;;85.13;47.15;;;1.20;99.90;;;;;;5092972;28;20462;-64
2021/12/09 07:03:20;;;;;;;90.03;48.33;;;1.20;99.90;;;;;;5093684;28;20028;-63
2021/12/09 07:05:47;;;;;;;92.72;48.95;;;1.20;99.90;;;;;;5092776;28;20031;-63
2021/12/09 07:08:13;;;;;;;91.63;50.75;;;1.20;99.90;;;;;;5093755;28;20039;-63
2021/12/09 07:10:38;;;;;;;92.72;51.00;;;1.20;99.90;;;;;;5091682;28;20410;-63
2021/12/09 07:13:05;;;;;;;85.53;48.63;;;1.20;99.90;;;;;;5093549;28;20049;-63
2021/12/09 07:15:32;;;;;;;88.70;49.10;;;1.20;99.90;;;;;;5093173;28;20031;-63
2021/12/09 07:17:58;;;;;;;85.97;48.97;;;1.20;99.90;;;;;;5092517;28;20094;-63
2021/12/09 07:20:24;;;;;;;85.57;47.95;;;1.30;99.90;;;;;;5093235;28;20016;-63
2021/12/09 07:22:51;;;;;;;72.40;43.63;;;1.30;99.90;;;;;;5092267;28;20532;-62
2021/12/09 07:25:19;;;;;;;77.18;43.75;;;1.30;99.90;;;;;;5089873;28;20051;-64
2021/12/09 07:27:45;;;;;;;77.72;45.10;;;1.30;99.90;;;;;;5092166;28;20167;-63
2021/12/09 07:30:12;;;;;;;78.53;45.70;;;1.30;99.90;;;;;;5093115;28;20102;-63
2021/12/09 07:32:38;;;;;;;75.80;42.97;;;1.30;99.90;;;;;;5092797;28;20028;-63
2021/12/09 07:35:06;;;;;;;70.50;42.50;;;1.30;99.90;;;;;;5092915;28;20031;-63
2021/12/09 07:37:33;;;;;;;76.68;43.95;;;1.30;99.90;;;;;;5092890;28;20020;-63
2021/12/09 07:39:59;;;;;;;76.68;42.97;;;1.40;99.90;;;;;;5092173;28;20038;-63
2021/12/09 07:42:25;;;;;;;74.13;43.08;;;1.40;99.90;;;;;;5092784;28;20106;-63
2021/12/09 07:44:51;;;;;;;66.35;39.17;;;1.40;99.90;;;;;;5092046;28;20369;-63
2021/12/09 07:47:17;;;;;;;67.82;40.47;;;1.40;99.90;;;;;;5092677;28;20483;-63
2021/12/09 07:49:44;;;;;;;65.88;39.28;;;1.40;99.90;;;;;;5091785;28;20024;-63
2021/12/09 07:52:10;;;;;;;69.78;41.25;;;1.40;99.90;;;;;;5092547;28;20059;-63
2021/12/09 07:54:36;;;;;;;69.70;40.97;;;1.40;99.90;;;;;;5091261;28;20063;-64
2021/12/09 07:57:02;;;;;;;66.05;40.35;;;1.40;99.90;;;;;;5091766;28;20059;-63
2021/12/09 07:59:27;;;;;;;61.72;38.85;;;1.50;99.90;;;;;;5091043;28;20054;-63
2021/12/09 08:01:53;;;;;;;65.97;38.15;;;1.50;99.90;;;;;;5091534;28;20425;-64
2021/12/09 08:04:19;;;;;;;61.75;37.35;;;1.50;99.90;;;;;;5092433;28;20035;-63
2021/12/09 08:06:44;;;;;;;61.13;37.78;;;1.50;99.90;;;;;;5091609;28;20050;-63
2021/12/09 08:09:10;;;;;;;63.00;38.78;;;1.50;99.90;;;;;;5092526;28;20020;-63
2021/12/09 08:11:37;;;;;;;61.97;37.83;;;1.50;99.90;;;;;;5091913;28;20031;-64
2021/12/09 08:14:07;;;;;;;56.15;36.13;;;1.50;99.90;;;;;;5091796;28;20047;-63
2021/12/09 08:16:37;;;;;;;60.65;37.35;;;1.50;99.90;;;;;;5092126;28;20024;-63
2021/12/09 08:19:14;;;;;;;66.35;39.15;;;1.50;99.90;;;;;;5091587;28;20107;-63
2021/12/09 08:21:41;;;;;;;62.28;38.35;;;1.50;99.90;;;;;;5092045;28;20369;-63
2021/12/09 08:24:09;;;;;;;57.25;35.92;;;1.60;99.90;;;;;;5091864;28;20019;-63
2021/12/09 08:26:36;;;;;;;61.78;37.38;;;1.60;99.90;;;;;;5092196;28;20012;-63
2021/12/09 08:29:03;;;;;;;63.72;38.10;;;1.60;99.90;;;;;;5091092;28;20195;-63
2021/12/09 08:31:32;;;;;;;65.07;37.75;;;1.60;99.90;;;;;;5091797;28;20042;-63
2021/12/09 08:33:58;;;;;;;58.83;36.38;;;1.60;99.90;;;;;;5091422;28;20124;-63
2021/12/09 08:36:24;;;;;;;62.63;37.22;;;1.60;99.90;;;;;;5091941;28;20020;-63
2021/12/09 08:38:50;;;;;;;57.72;35.88;;;1.70;99.90;;;;;;5091548;28;20100;-63
2021/12/09 08:41:18;;;;;;;54.67;34.55;;;1.70;99.90;;;;;;5091896;28;20452;-63
2021/12/09 08:43:44;;;;;;;57.72;36.15;;;1.70;99.90;;;;;;5091228;28;20107;-63
2021/12/09 08:46:10;;;;;;;58.05;36.78;;;1.70;99.90;;;;;;5091789;28;20044;-62
2021/12/09 08:48:36;;;;;;;60.05;36.88;;;1.70;99.90;;;;;;5092091;28;20066;-63
2021/12/09 08:51:02;;;;;;;58.25;37.55;;;1.80;99.90;;;;;;5091317;28;20102;-63
2021/12/09 08:53:27;;;;;;;59.38;35.55;;;1.80;99.90;;;;;;5091521;28;20028;-63
2021/12/09 08:55:54;;;;;;;60.15;37.20;;;1.80;99.90;;;;;;5083539;28;20465;-62
2021/12/09 08:58:21;;;;;;;56.90;35.65;;;1.80;99.90;;;;;;5079183;28;20016;-62
2021/12/09 09:00:49;;;;;;;59.55;36.33;;;1.80;99.90;;;;;;5091090;28;20478;-63
2021/12/09 09:03:15;;;;;;;56.40;35.10;;;1.90;99.90;;;;;;5091799;28;20424;-63
2021/12/09 09:05:42;;;;;;;61.03;37.63;;;1.90;99.90;;;;;;5091577;28;20047;-63
2021/12/09 09:08:08;;;;;;;54.60;34.70;;;1.90;99.90;;;;;;5091027;28;20398;-63
2021/12/09 09:10:37;;;;;;;54.80;34.17;;;2.00;99.90;;;;;;5091800;28;20028;-63
2021/12/09 09:13:03;;;;;;;51.80;33.30;;;2.00;99.90;;;;;;5091216;28;20085;-63
2021/12/09 09:15:31;;;;;;;50.92;31.70;;;2.00;99.90;;;;;;5091153;28;20052;-63
2021/12/09 09:17:58;;;;;;;47.58;30.48;;;2.00;99.90;;;;;;5091334;28;20395;-63
2021/12/09 09:20:26;;;;;;;43.85;28.95;;;2.00;99.90;;;;;;5091624;28;20054;-63
2021/12/09 09:22:52;;;;;;;40.45;26.05;;;2.00;99.90;;;;;;5090677;28;20020;-62
2021/12/09 09:25:22;;;;;;;41.08;28.08;;;2.00;99.90;;;;;;5091467;28;20046;-63
2021/12/09 09:27:49;;;;;;;41.42;25.83;;;2.00;99.90;;;;;;5088596;28;20373;-62
2021/12/09 09:30:18;;;;;;;38.97;25.63;;;2.00;99.90;;;;;;5090552;28;20077;-64
2021/12/09 09:32:45;;;;;;;38.67;25.98;;;2.00;99.90;;;;;;5091543;28;20016;-62
2021/12/09 09:35:11;;;;;;;37.83;25.58;;;2.00;99.90;;;;;;5091023;28;20024;-62
2021/12/09 09:37:37;;;;;;;38.65;25.40;;;2.00;99.90;;;;;;5091375;28;20020;-62
2021/12/09 09:40:08;;;;;;;40.95;25.52;;;2.00;99.90;;;;;;5089646;28;20356;-65
2021/12/09 09:42:59;;;;;;;39.78;26.13;;;2.00;99.90;;;;;;5093789;28;20052;-65
2021/12/09 09:45:21;;;;;;;35.35;24.92;;;2.00;99.90;;;;;;5095280;28;20032;-64
2021/12/09 09:47:48;;;;;;;37.80;25.27;;;2.00;99.90;;;;;;5095226;28;20310;-63
2021/12/09 09:50:13;;;;;;;39.50;25.52;;;2.00;99.90;;;;;;5095210;28;20098;-64
2021/12/09 09:52:40;;;;;;;38.13;27.00;;;2.00;99.90;;;;;;5095608;28;20069;-65
2021/12/09 09:55:09;;;;;;;41.53;26.80;;;2.00;99.90;;;;;;5094615;28;20016;-64
2021/12/09 09:57:36;;;;;;;40.08;25.30;;;2.00;99.90;;;;;;5093776;28;20012;-64
2021/12/09 10:00:09;;;;;;;37.58;25.33;;;2.10;99.90;;;;;;5094360;28;20024;-62
2021/12/09 10:02:35;;;;;;;39.13;25.23;;;2.10;99.90;;;;;;5095014;28;20016;-62
2021/12/09 10:05:02;;;;;;;44.28;26.15;;;2.10;99.90;;;;;;5094399;28;20020;-62
2021/12/09 10:07:29;;;;;;;37.47;25.67;;;2.10;99.90;;;;;;5094693;28;20036;-63
2021/12/09 10:09:55;;;;;;;36.95;26.02;;;2.00;99.90;;;;;;5094112;28;20058;-62
2021/12/09 10:12:21;;;;;;;32.67;23.20;;;2.10;99.90;;;;;;5094688;28;20368;-63
2021/12/09 10:14:52;;;;;;;32.03;22.75;;;2.00;99.90;;;;;;5094939;28;20023;-63
2021/12/09 10:17:26;;;;;;;32.83;23.63;;;2.00;99.90;;;;;;5094730;28;20051;-63
2021/12/09 10:19:55;;;;;;;39.70;23.98;;;2.00;99.90;;;;;;5094104;28;20039;-62
2021/12/09 10:22:28;;;;;;;35.00;24.23;;;2.00;99.90;;;;;;5094738;28;20047;-62
2021/12/09 10:24:56;;;;;;;36.60;25.83;;;1.90;99.90;;;;;;5093936;28;20035;-63
2021/12/09 10:27:29;;;;;;;36.35;23.85;;;1.90;99.90;;;;;;5094499;28;20034;-63
2021/12/09 10:30:01;;;;;;;35.67;24.58;;;1.90;99.90;;;;;;5093679;28;20499;-63
2021/12/09 10:32:46;;;;;;;36.83;23.02;;;1.90;99.90;;;;;;5094637;28;20048;-63
2021/12/09 10:35:19;;;;;;;39.15;24.33;;;1.90;99.90;;;;;;5093674;28;20036;-63
2021/12/09 10:37:47;;;;;;;35.25;24.70;;;1.90;99.90;;;;;;5094191;28;20021;-63
2021/12/09 10:40:18;;;;;;;34.88;24.17;;;1.90;99.90;;;;;;5093586;28;20012;-63
2021/12/09 10:42:55;;;;;;;35.13;21.87;;;1.90;99.90;;;;;;5094144;28;20032;-63
2021/12/09 10:45:28;;;;;;;31.55;23.02;;;2.00;99.90;;;;;;5094238;28;20288;-63
2021/12/09 10:48:04;;;;;;;33.38;21.55;;;2.00;99.90;;;;;;5093494;28;20044;-63
2021/12/09 10:51:05;;;;;;;31.88;21.40;;;2.00;99.90;;;;;;5094308;28;20028;-63
2021/12/09 10:53:47;;;;;;;31.25;20.45;;;2.00;99.90;;;;;;5093649;28;20023;-63
2021/12/09 10:56:23;;;;;;;31.60;21.33;;;2.00;99.90;;;;;;5093447;28;20039;-63
2021/12/09 10:58:49;;;;;;;32.38;20.73;;;2.00;99.90;;;;;;5093862;28;20130;-63
2021/12/09 11:01:17;;;;;;;33.88;22.77;;;2.00;99.90;;;;;;5093133;28;20027;-63
2021/12/09 11:03:50;;;;;;;34.90;23.83;;;2.00;99.90;;;;;;5093623;28;20016;-63
2021/12/09 11:06:19;;;;;;;33.08;22.23;;;2.00;99.90;;;;;;5084805;28;20020;-63
2021/12/09 11:08:48;;;;;;;32.15;23.00;;;2.10;99.90;;;;;;5073457;28;20396;-63
2021/12/09 11:11:15;;;;;;;32.33;22.35;;;2.00;99.90;;;;;;5072786;28;20123;-63
2021/12/09 11:13:41;;;;;;;31.20;21.95;;;2.10;99.90;;;;;;5071923;28;20052;-63
2021/12/09 11:16:07;;;;;;;33.25;22.02;;;2.10;99.90;;;;;;5072764;28;20028;-63
2021/12/09 11:18:45;;;;;;;31.30;20.80;;;2.10;99.90;;;;;;5073399;28;20047;-63
2021/12/09 11:21:19;;;;;;;29.73;18.73;;;2.10;99.90;;;;;;5072388;28;20036;-62
2021/12/09 11:23:58;;;;;;;26.52;19.40;;;2.00;99.90;;;;;;5072973;28;20036;-63
2021/12/09 11:29:11;;;;;;;26.95;19.25;;;2.10;99.90;;;;;;5072496;28;20056;-63
2021/12/09 11:32:03;;;;;;;24.58;17.90;;;2.10;99.90;;;;;;5072936;28;20024;-63
2021/12/09 11:35:34;;;;;;;26.77;19.48;;;2.10;99.90;;;;;;5074410;28;20099;-63
2021/12/09 11:37:40;;;;;;;28.90;18.83;;;2.10;99.90;;;;;;5065213;28;20449;-64
2021/12/09 11:40:06;;;;;;;31.25;21.13;;;2.10;99.90;;;;;;5072169;28;20017;-64
2021/12/09 11:42:40;;;;;;;29.80;20.65;;;2.10;99.90;;;;;;5072799;28;20482;-64
2021/12/09 11:45:08;;;;;;;27.55;19.45;;;2.10;99.90;;;;;;5072223;28;20545;-64
2021/12/09 11:47:36;;;;;;;31.10;20.35;;;2.10;99.90;;;;;;5072473;28;20499;-64
2021/12/09 11:50:03;;;;;;;32.85;20.48;;;2.10;99.90;;;;;;5072070;28;20058;-64
2021/12/09 11:52:29;;;;;;;31.75;20.25;;;2.10;99.90;;;;;;5072595;28;20377;-64
2021/12/09 11:55:02;;;;;;;26.52;18.58;;;2.10;99.90;;;;;;5072582;28;20024;-63
2021/12/09 12:11:31;;;;;;;28.63;18.63;;;2.20;99.90;;;;;;5091597;28;20020;-64
2021/12/09 12:14:10;;;;;;;28.35;18.08;;;2.20;99.90;;;;;;5092486;28;20081;-66
2021/12/09 12:19:25;;;;;;;23.80;17.02;;;2.20;99.90;;;;;;5091983;28;20059;-63
2021/12/09 12:30:45;;;;;;;25.45;18.58;;;2.20;99.90;;;;;;5092173;28;20023;-63
2021/12/09 12:33:18;;;;;;;27.55;17.90;;;2.10;99.90;;;;;;5083785;28;20032;-63
2021/12/09 12:36:52;;;;;;;26.02;17.73;;;2.20;99.90;;;;;;5092137;28;20542;-63
2021/12/09 12:38:51;;;;;;;25.88;18.52;;;2.10;99.90;;;;;;5083366;28;20414;-63
2021/12/09 12:41:19;;;;;;;28.45;17.40;;;2.10;99.90;;;;;;5091149;28;20467;-63
2021/12/09 12:43:56;;;;;;;23.33;17.42;;;2.10;99.90;;;;;;5091967;28;20054;-63
2021/12/09 12:49:24;;;;;;;26.33;18.20;;;2.10;99.90;;;;;;5091547;28;20025;-64
2021/12/09 12:52:00;;;;;;;27.42;18.60;;;2.10;99.90;;;;;;5091843;28;20107;-63
2021/12/09 12:57:33;;;;;;;29.42;17.23;;;2.10;99.90;;;;;;5091275;28;20020;-62
2021/12/09 13:00:14;;;;;;;22.73;16.38;;;2.10;99.90;;;;;;5072207;28;20394;-63
2021/12/09 13:05:56;;;;;;;21.70;15.98;;;2.10;99.90;;;;;;5071572;28;20043;-63
2021/12/09 13:08:56;;;;;;;25.30;17.33;;;2.10;99.90;;;;;;5071003;28;20097;-64
2021/12/09 13:11:40;;;;;;;22.83;17.67;;;2.10;99.90;;;;;;5070900;28;20032;-63
2021/12/09 13:14:12;;;;;;;25.08;17.45;;;2.20;99.90;;;;;;5085676;28;20468;-63
2021/12/09 13:17:01;;;;;;;24.08;17.35;;;2.10;99.90;;;;;;5094100;28;20108;-63
2021/12/09 13:19:35;;;;;;;23.85;16.40;;;2.10;99.90;;;;;;5095274;28;20020;-63
2021/12/09 13:22:17;;;;;;;23.08;16.90;;;2.10;99.90;;;;;;5095862;28;20020;-63